Time;durP1;ratioP1;P1;durP2;ratioP2;P2;SDS_P1;SDS_P2;PMS_P1;PMS_P2;Temp;Humidity;BMP_temperature;BMP_pressure;BME280_temperature;BME280_humidity;BME280_pressure;Samples;Min_cycle;Max_cycle;Signal;HPM_P1;HPM_P2
2022/06/21 00:00:30;;;;;;;6.97;6.27;;;21.20;89.20;;;;;;5074840;28;20428;-66
2022/06/21 00:03:00;;;;;;;10.23;6.33;;;21.20;89.20;;;;;;5074160;28;20485;-65
2022/06/21 00:05:31;;;;;;;10.87;7.40;;;21.10;89.10;;;;;;5074558;28;20872;-66
2022/06/21 00:08:01;;;;;;;8.20;6.80;;;21.10;89.30;;;;;;5074219;28;20443;-66
2022/06/21 00:10:34;;;;;;;12.70;6.50;;;21.00;89.40;;;;;;5074755;28;20440;-66
2022/06/21 00:13:02;;;;;;;6.90;5.80;;;21.00;89.60;;;;;;5074342;28;20472;-65
2022/06/21 00:15:29;;;;;;;7.37;6.03;;;21.00;89.50;;;;;;5074708;28;20447;-65
2022/06/21 00:17:57;;;;;;;6.53;5.20;;;21.00;89.80;;;;;;5074010;28;20444;-65
2022/06/21 00:20:27;;;;;;;8.60;6.67;;;21.00;90.10;;;;;;5074248;28;20436;-65
2022/06/21 00:22:54;;;;;;;10.23;6.43;;;21.10;90.20;;;;;;5074007;28;20520;-65
2022/06/21 00:25:24;;;;;;;8.97;6.20;;;21.10;89.80;;;;;;5074394;28;20440;-71
2022/06/21 00:27:55;;;;;;;8.80;6.23;;;21.10;89.20;;;;;;5073722;28;20436;-65
2022/06/21 00:30:23;;;;;;;6.97;6.27;;;21.00;89.20;;;;;;5073853;28;20937;-65
2022/06/21 00:32:53;;;;;;;6.73;5.03;;;21.00;89.40;;;;;;5073861;28;20525;-65
2022/06/21 00:35:26;;;;;;;9.70;5.73;;;21.00;88.70;;;;;;5074180;28;20880;-65
2022/06/21 00:37:54;;;;;;;6.80;5.90;;;21.00;88.20;;;;;;5073930;28;20432;-65
2022/06/21 00:40:25;;;;;;;6.17;5.50;;;21.00;87.40;;;;;;5073621;28;20483;-65
2022/06/21 00:42:58;;;;;;;7.00;5.37;;;20.90;86.60;;;;;;5073753;28;20436;-65
2022/06/21 00:45:32;;;;;;;5.70;4.73;;;20.80;85.40;;;;;;5073750;28;20908;-66
2022/06/21 00:48:06;;;;;;;7.83;5.50;;;20.80;85.30;;;;;;5073526;28;20436;-65
2022/06/21 00:50:36;;;;;;;9.20;6.00;;;20.70;85.60;;;;;;5074050;28;20436;-65
2022/06/21 00:53:11;;;;;;;6.97;5.70;;;20.60;85.40;;;;;;5073475;28;20518;-65
2022/06/21 00:55:45;;;;;;;6.20;4.70;;;20.50;84.60;;;;;;5073478;28;20440;-65
2022/06/21 00:58:17;;;;;;;7.13;5.23;;;20.50;85.30;;;;;;5073402;28;20784;-65
2022/06/21 01:00:55;;;;;;;6.70;5.20;;;20.50;85.30;;;;;;5073989;28;20817;-65
2022/06/21 01:03:26;;;;;;;7.43;4.87;;;20.50;86.00;;;;;;5073158;28;20490;-65
2022/06/21 01:05:58;;;;;;;6.17;4.80;;;20.40;86.00;;;;;;5073538;28;20447;-65
2022/06/21 01:08:30;;;;;;;9.53;5.10;;;20.40;86.20;;;;;;5073243;28;21579;-65
2022/06/21 01:11:05;;;;;;;10.63;4.97;;;20.40;85.80;;;;;;5073433;28;20440;-65
2022/06/21 01:13:38;;;;;;;6.33;5.23;;;20.40;86.90;;;;;;5072998;28;20486;-65
2022/06/21 01:16:07;;;;;;;8.90;5.63;;;20.30;86.20;;;;;;5072211;28;20522;-65
2022/06/21 01:18:35;;;;;;;7.43;4.73;;;20.20;86.30;;;;;;5072982;28;20463;-65
2022/06/21 01:21:05;;;;;;;7.03;5.00;;;20.20;86.60;;;;;;5073306;28;20463;-65
2022/06/21 01:23:57;;;;;;;7.63;4.90;;;20.20;86.90;;;;;;5072795;28;20470;-65
2022/06/21 01:26:41;;;;;;;6.63;4.87;;;20.20;86.80;;;;;;5072899;28;20428;-65
2022/06/21 01:29:16;;;;;;;5.27;4.50;;;20.10;86.70;;;;;;5072436;28;20472;-65
2022/06/21 01:31:49;;;;;;;6.80;4.67;;;20.10;87.10;;;;;;5072751;28;20446;-65
2022/06/21 01:34:18;;;;;;;9.27;5.27;;;20.00;86.90;;;;;;5072434;28;20507;-65
2022/06/21 01:36:48;;;;;;;5.63;4.50;;;20.00;87.10;;;;;;5072826;28;20439;-65
2022/06/21 01:39:21;;;;;;;5.10;3.83;;;20.10;87.50;;;;;;5072445;28;20446;-65
2022/06/21 01:41:56;;;;;;;5.70;4.60;;;20.10;87.60;;;;;;5072948;28;20431;-65
2022/06/21 01:44:38;;;;;;;10.50;5.10;;;20.10;87.50;;;;;;5072342;28;20823;-66
2022/06/21 01:47:10;;;;;;;6.80;4.93;;;20.10;87.10;;;;;;5072634;28;20472;-65
2022/06/21 01:49:42;;;;;;;6.50;5.57;;;20.10;87.60;;;;;;5072292;28;20511;-65
2022/06/21 01:52:13;;;;;;;6.47;5.70;;;20.10;87.70;;;;;;5072417;28;20444;-65
2022/06/21 01:54:45;;;;;;;6.30;5.00;;;20.10;88.10;;;;;;5072598;28;20436;-65
2022/06/21 01:57:15;;;;;;;5.90;5.30;;;20.00;87.60;;;;;;5072652;28;20452;-65
2022/06/21 01:59:45;;;;;;;7.83;4.70;;;20.00;88.10;;;;;;5072189;28;20443;-65
2022/06/21 02:02:19;;;;;;;9.30;5.40;;;20.00;88.60;;;;;;5072743;28;20502;-65
2022/06/21 02:04:54;;;;;;;7.83;4.60;;;20.00;88.90;;;;;;5072539;28;20534;-65
2022/06/21 02:07:26;;;;;;;6.90;5.00;;;20.10;89.00;;;;;;5072026;28;20437;-65
2022/06/21 02:10:01;;;;;;;6.33;4.60;;;20.10;88.60;;;;;;5072103;28;20433;-65
2022/06/21 02:12:31;;;;;;;6.10;4.10;;;20.10;88.30;;;;;;5072496;28;20474;-65
2022/06/21 02:15:02;;;;;;;4.87;4.20;;;20.10;87.60;;;;;;5071878;28;20969;-65
2022/06/21 02:17:35;;;;;;;4.80;4.07;;;20.10;87.10;;;;;;5072023;28;20451;-65
2022/06/21 02:20:13;;;;;;;4.90;4.40;;;20.10;86.80;;;;;;5071924;28;20440;-65
2022/06/21 02:22:41;;;;;;;5.17;4.03;;;20.10;87.00;;;;;;5072349;28;20456;-65
2022/06/21 02:25:16;;;;;;;6.53;4.43;;;20.10;87.50;;;;;;5072013;28;20444;-65
2022/06/21 02:27:45;;;;;;;6.20;4.50;;;20.20;87.50;;;;;;5071832;28;20443;-65
2022/06/21 02:30:18;;;;;;;5.23;3.53;;;20.20;86.90;;;;;;5072265;28;20778;-64
2022/06/21 02:32:45;;;;;;;4.73;3.70;;;20.20;86.60;;;;;;5071026;28;20571;-66
2022/06/21 02:35:20;;;;;;;4.50;3.87;;;20.10;86.00;;;;;;5072037;28;20454;-65
2022/06/21 02:37:51;;;;;;;5.60;3.10;;;20.20;86.00;;;;;;5072703;28;20434;-65
2022/06/21 02:40:22;;;;;;;4.33;3.77;;;20.10;85.80;;;;;;5072114;28;20942;-65
2022/06/21 02:42:53;;;;;;;6.23;3.70;;;20.10;86.00;;;;;;5071996;28;20506;-65
2022/06/21 02:45:28;;;;;;;10.37;3.90;;;20.10;86.50;;;;;;5072350;28;21114;-65
2022/06/21 02:47:58;;;;;;;6.00;3.83;;;20.10;86.00;;;;;;5071373;28;20446;-65
2022/06/21 02:50:36;;;;;;;5.60;4.33;;;20.00;85.60;;;;;;5071956;28;20455;-65
2022/06/21 02:53:11;;;;;;;5.37;3.70;;;20.00;86.30;;;;;;5052152;28;20476;-65
2022/06/21 02:55:44;;;;;;;4.23;3.83;;;20.00;85.90;;;;;;5052500;28;20448;-65
2022/06/21 02:58:21;;;;;;;4.60;4.10;;;20.00;86.00;;;;;;5072183;28;20446;-65
2022/06/21 03:00:51;;;;;;;4.80;3.17;;;20.00;85.80;;;;;;5071295;28;20795;-65
2022/06/21 03:03:22;;;;;;;5.10;4.00;;;19.90;85.60;;;;;;5071935;28;20445;-65
2022/06/21 03:05:51;;;;;;;6.80;3.73;;;19.90;85.20;;;;;;5071356;28;20922;-66
2022/06/21 03:08:20;;;;;;;10.00;3.40;;;20.00;85.50;;;;;;5072056;28;20431;-65
2022/06/21 03:10:52;;;;;;;5.17;3.50;;;19.90;85.50;;;;;;5071189;28;20527;-66
2022/06/21 03:13:23;;;;;;;8.23;3.73;;;19.90;85.40;;;;;;5071489;28;20495;-65
2022/06/21 03:15:58;;;;;;;5.23;3.50;;;19.90;84.60;;;;;;5071509;28;20965;-65
2022/06/21 03:18:30;;;;;;;4.27;3.17;;;19.80;83.70;;;;;;5071785;28;20439;-65
2022/06/21 03:20:59;;;;;;;4.20;3.80;;;19.80;83.50;;;;;;5071276;28;20516;-65
2022/06/21 03:23:28;;;;;;;4.57;4.07;;;19.70;83.50;;;;;;5071324;28;20442;-65
2022/06/21 03:25:59;;;;;;;4.77;3.60;;;19.70;83.60;;;;;;5070497;28;20497;-65
2022/06/21 03:28:31;;;;;;;4.10;3.57;;;19.60;83.70;;;;;;5067905;28;20455;-66
2022/06/21 03:31:08;;;;;;;5.27;3.50;;;19.60;84.20;;;;;;5071681;28;20918;-66
2022/06/21 03:33:37;;;;;;;4.43;3.53;;;19.50;83.40;;;;;;5071710;28;20478;-65
2022/06/21 03:36:08;;;;;;;7.20;3.53;;;19.50;83.50;;;;;;5071428;28;20984;-65
2022/06/21 03:38:36;;;;;;;5.10;3.97;;;19.40;84.10;;;;;;5073426;28;20710;-65
2022/06/21 03:43:53;;;;;;;5.70;3.07;;;19.40;84.60;;;;;;5073575;28;20566;-65
2022/06/21 03:46:24;;;;;;;6.40;3.40;;;19.40;84.30;;;;;;5073312;28;20440;-65
2022/06/21 03:48:55;;;;;;;5.50;3.17;;;19.40;83.90;;;;;;5075102;28;20444;-65
2022/06/21 03:51:26;;;;;;;4.90;3.50;;;19.30;84.10;;;;;;5071895;28;20526;-65
2022/06/21 03:53:58;;;;;;;10.30;3.77;;;19.30;84.60;;;;;;5074151;28;20507;-65
2022/06/21 03:56:30;;;;;;;4.83;2.60;;;19.40;84.70;;;;;;5074816;28;20452;-65
2022/06/21 03:59:05;;;;;;;5.83;3.10;;;19.40;84.60;;;;;;5074355;28;20475;-65
2022/06/21 04:01:36;;;;;;;4.30;3.73;;;19.40;84.60;;;;;;5070719;28;20531;-66
2022/06/21 04:04:10;;;;;;;4.53;2.90;;;19.40;84.50;;;;;;5071877;28;20466;-66
2022/06/21 04:06:46;;;;;;;3.43;2.40;;;19.30;84.70;;;;;;5071996;28;20523;-65
2022/06/21 04:09:20;;;;;;;4.57;3.23;;;19.30;84.70;;;;;;5073225;28;20526;-65
2022/06/21 04:11:53;;;;;;;4.50;3.30;;;19.40;84.20;;;;;;5069972;28;20434;-65
2022/06/21 04:14:30;;;;;;;4.30;2.73;;;19.40;84.20;;;;;;5072466;28;20479;-65
2022/06/21 04:17:01;;;;;;;4.60;3.20;;;19.40;84.10;;;;;;5069954;28;20424;-65
2022/06/21 04:19:34;;;;;;;5.13;2.43;;;19.40;84.90;;;;;;5075269;28;20458;-65
2022/06/21 04:22:07;;;;;;;4.83;2.50;;;19.40;83.60;;;;;;5075312;28;20441;-65
2022/06/21 04:24:46;;;;;;;5.03;2.47;;;19.40;84.00;;;;;;5073851;28;20436;-65
2022/06/21 04:27:19;;;;;;;3.73;2.40;;;19.40;83.90;;;;;;5074876;28;20447;-65
2022/06/21 04:29:54;;;;;;;3.33;2.37;;;19.40;84.20;;;;;;5073044;28;20558;-65
2022/06/21 04:32:29;;;;;;;3.87;2.57;;;19.40;84.20;;;;;;5075187;28;20831;-65
2022/06/21 04:35:01;;;;;;;9.40;2.80;;;19.40;84.60;;;;;;5075006;28;21065;-65
2022/06/21 04:37:36;;;;;;;6.13;2.87;;;19.40;83.50;;;;;;5074763;28;20805;-65
2022/06/21 04:40:08;;;;;;;6.23;3.40;;;19.40;83.60;;;;;;5074677;28;20940;-65
2022/06/21 04:42:41;;;;;;;3.20;2.90;;;19.40;84.20;;;;;;5074919;28;20942;-65
2022/06/21 04:45:18;;;;;;;4.93;2.83;;;19.40;84.30;;;;;;5074742;28;20438;-66
2022/06/21 04:47:51;;;;;;;4.80;2.30;;;19.50;84.10;;;;;;5074725;28;20920;-65
2022/06/21 04:50:28;;;;;;;4.40;2.60;;;19.50;84.90;;;;;;5074685;28;20763;-65
2022/06/21 04:53:01;;;;;;;3.20;2.00;;;19.50;84.50;;;;;;5074648;28;20782;-65
2022/06/21 04:55:38;;;;;;;4.93;2.10;;;19.60;84.10;;;;;;5074570;28;20910;-66
2022/06/21 04:58:05;;;;;;;7.07;2.87;;;19.60;84.10;;;;;;5074746;28;20446;-65
2022/06/21 05:00:34;;;;;;;5.73;2.47;;;19.70;83.50;;;;;;5074370;28;20535;-65
2022/06/21 05:03:07;;;;;;;5.87;2.73;;;19.80;84.10;;;;;;5074110;28;20528;-65
2022/06/21 05:05:37;;;;;;;3.60;2.40;;;19.80;83.30;;;;;;5074440;28;20432;-65
2022/06/21 05:08:09;;;;;;;3.60;2.43;;;19.80;83.50;;;;;;5074517;28;20531;-65
2022/06/21 05:10:38;;;;;;;4.27;2.70;;;19.90;82.60;;;;;;5074188;28;20444;-65
2022/06/21 05:13:11;;;;;;;4.90;2.40;;;19.80;81.70;;;;;;5074117;28;20428;-66
2022/06/21 05:15:41;;;;;;;3.70;2.70;;;19.80;80.70;;;;;;5073739;28;20515;-65
2022/06/21 05:18:13;;;;;;;16.43;2.70;;;19.80;80.30;;;;;;5074137;28;20532;-65
2022/06/21 05:20:53;;;;;;;6.40;2.40;;;19.70;80.50;;;;;;5074159;28;20505;-65
2022/06/21 05:23:21;;;;;;;4.47;2.60;;;19.70;81.30;;;;;;5073888;28;20443;-65
2022/06/21 05:25:50;;;;;;;4.53;2.20;;;19.70;79.10;;;;;;5073636;28;20544;-65
2022/06/21 05:28:25;;;;;;;3.47;2.57;;;19.70;78.70;;;;;;5073598;28;20592;-65
2022/06/21 05:30:57;;;;;;;3.93;2.60;;;19.60;78.00;;;;;;5073938;28;20507;-65
2022/06/21 05:33:29;;;;;;;2.80;1.87;;;19.50;78.70;;;;;;5073810;28;20475;-65
2022/06/21 05:35:56;;;;;;;7.87;2.53;;;19.50;79.10;;;;;;5073734;28;20534;-65
2022/06/21 05:38:26;;;;;;;4.20;2.47;;;19.40;79.30;;;;;;5071583;28;20915;-65
2022/06/21 05:40:56;;;;;;;3.40;2.10;;;19.40;79.80;;;;;;5074172;28;20455;-65
2022/06/21 05:43:31;;;;;;;3.67;2.60;;;19.40;79.20;;;;;;5074241;28;20447;-66
2022/06/21 05:46:02;;;;;;;6.40;2.13;;;19.50;78.70;;;;;;5061260;28;20443;-65
2022/06/21 05:48:32;;;;;;;2.60;1.70;;;19.50;79.50;;;;;;5080937;28;20447;-65
2022/06/21 05:51:01;;;;;;;3.70;1.60;;;19.50;79.30;;;;;;5083017;28;20860;-65
2022/06/21 05:53:31;;;;;;;2.70;1.77;;;19.50;78.80;;;;;;5081789;28;20912;-65
2022/06/21 05:56:01;;;;;;;2.80;1.90;;;19.50;78.40;;;;;;5080344;28;20530;-65
2022/06/21 05:58:31;;;;;;;5.30;2.23;;;19.60;79.40;;;;;;5081738;28;20470;-65
2022/06/21 06:01:06;;;;;;;3.33;2.00;;;19.70;78.70;;;;;;5079874;28;20794;-65
2022/06/21 06:03:39;;;;;;;3.57;2.03;;;19.70;79.10;;;;;;5081057;28;20446;-65
2022/06/21 06:06:12;;;;;;;2.57;1.67;;;19.80;79.10;;;;;;5083612;28;20465;-65
2022/06/21 06:08:42;;;;;;;5.57;1.93;;;19.90;78.70;;;;;;5078103;28;20511;-66
2022/06/21 06:11:15;;;;;;;3.47;2.00;;;19.90;78.40;;;;;;5080328;28;20451;-65
2022/06/21 06:13:43;;;;;;;3.83;1.80;;;19.90;76.10;;;;;;5078781;28;21034;-65
2022/06/21 06:16:26;;;;;;;7.90;1.73;;;19.90;76.90;;;;;;5078338;28;20435;-66
2022/06/21 06:18:58;;;;;;;5.13;1.60;;;19.90;77.80;;;;;;5079688;28;20449;-65
2022/06/21 06:21:31;;;;;;;7.90;2.10;;;20.00;77.90;;;;;;5082204;28;20447;-66
2022/06/21 06:24:04;;;;;;;2.97;1.67;;;20.10;79.00;;;;;;5080209;28;20522;-65
2022/06/21 06:26:35;;;;;;;4.50;2.17;;;20.20;76.40;;;;;;5081174;28;20435;-65
2022/06/21 06:29:07;;;;;;;5.67;1.83;;;20.20;77.00;;;;;;5081580;28;20479;-66
2022/06/21 06:31:41;;;;;;;4.80;1.93;;;20.30;77.00;;;;;;5080776;28;20772;-65
2022/06/21 06:34:12;;;;;;;4.37;2.17;;;20.40;76.40;;;;;;5083312;28;20490;-65
2022/06/21 06:36:42;;;;;;;3.53;2.10;;;20.50;76.50;;;;;;5079887;28;20856;-66
2022/06/21 06:39:21;;;;;;;3.37;2.30;;;20.60;74.60;;;;;;5083514;28;20814;-65
2022/06/21 06:41:56;;;;;;;5.10;1.77;;;20.60;74.10;;;;;;5077502;28;20474;-65
2022/06/21 06:44:27;;;;;;;4.10;2.33;;;20.60;74.60;;;;;;5081909;28;20986;-65
2022/06/21 06:46:58;;;;;;;2.93;2.10;;;20.60;74.00;;;;;;5080627;28;21025;-65
2022/06/21 06:49:31;;;;;;;5.97;2.03;;;20.60;74.30;;;;;;5081732;28;20430;-66
2022/06/21 06:52:03;;;;;;;4.10;2.10;;;20.70;75.00;;;;;;5081936;28;20530;-65
2022/06/21 06:54:44;;;;;;;3.53;2.40;;;20.70;74.40;;;;;;5081342;28;21007;-65
2022/06/21 06:57:20;;;;;;;4.50;2.33;;;20.80;74.10;;;;;;5077657;28;20431;-66
2022/06/21 06:59:47;;;;;;;4.73;2.20;;;20.80;73.70;;;;;;5083779;28;20470;-65
2022/06/21 07:02:22;;;;;;;3.70;2.17;;;20.80;74.10;;;;;;5071308;28;20427;-65
2022/06/21 07:04:57;;;;;;;4.70;2.70;;;20.90;74.90;;;;;;5072194;28;20424;-65
2022/06/21 07:07:29;;;;;;;7.27;2.77;;;21.00;74.20;;;;;;5072707;28;20438;-65
2022/06/21 07:10:03;;;;;;;6.13;3.03;;;21.00;74.10;;;;;;5072192;28;20459;-65
2022/06/21 07:12:31;;;;;;;6.17;2.37;;;21.00;73.90;;;;;;5070743;28;20447;-65
2022/06/21 07:14:59;;;;;;;3.87;2.50;;;21.10;74.50;;;;;;5075880;28;20483;-65
2022/06/21 07:17:33;;;;;;;5.13;3.07;;;21.30;74.50;;;;;;5076438;28;20454;-65
2022/06/21 07:20:01;;;;;;;5.20;2.90;;;21.40;74.30;;;;;;5076426;28;20439;-65
2022/06/21 07:22:33;;;;;;;4.67;2.10;;;21.60;72.90;;;;;;5075992;28;20527;-65
2022/06/21 07:25:05;;;;;;;4.53;2.40;;;21.70;72.40;;;;;;5076115;28;20525;-65
2022/06/21 07:27:36;;;;;;;5.43;3.00;;;21.70;70.70;;;;;;5076225;28;20988;-65
2022/06/21 07:30:06;;;;;;;8.53;3.87;;;21.70;71.00;;;;;;5076137;28;20551;-65
2022/06/21 07:32:40;;;;;;;4.13;3.40;;;21.70;71.00;;;;;;5075374;28;20439;-65
2022/06/21 07:35:10;;;;;;;6.77;3.20;;;21.80;70.10;;;;;;5075948;28;20485;-65
2022/06/21 07:37:42;;;;;;;5.63;2.93;;;21.80;71.20;;;;;;5076035;28;20440;-66
2022/06/21 07:40:14;;;;;;;7.47;3.47;;;21.90;71.50;;;;;;5076067;28;20814;-68
2022/06/21 07:42:46;;;;;;;4.67;2.80;;;22.00;71.60;;;;;;5076169;28;20505;-65
2022/06/21 07:45:20;;;;;;;6.10;3.40;;;22.20;70.80;;;;;;5075982;28;20447;-66
2022/06/21 07:47:54;;;;;;;6.90;3.53;;;22.30;70.90;;;;;;5076043;28;20471;-65
2022/06/21 07:50:26;;;;;;;7.90;4.37;;;22.40;70.90;;;;;;5075754;28;20467;-65
2022/06/21 07:52:59;;;;;;;5.83;4.00;;;22.60;71.10;;;;;;5075720;28;21018;-65
2022/06/21 07:55:33;;;;;;;7.73;4.03;;;22.70;69.60;;;;;;5075063;28;20476;-65
2022/06/21 07:58:05;;;;;;;9.70;3.83;;;22.80;70.00;;;;;;5075639;28;20444;-66
2022/06/21 08:09:24;;;;;;;6.10;3.57;;;22.80;68.20;;;;;;5075758;28;20780;-65
2022/06/21 08:11:53;;;;;;;5.10;3.87;;;22.90;68.90;;;;;;5075296;28;20933;-65
2022/06/21 08:14:20;;;;;;;10.13;5.87;;;22.90;69.00;;;;;;5074890;28;20481;-65
2022/06/21 08:16:53;;;;;;;8.97;5.10;;;22.90;69.10;;;;;;5075024;28;20436;-65
2022/06/21 08:19:29;;;;;;;4.63;3.30;;;23.00;68.60;;;;;;5075085;28;20935;-65
2022/06/21 08:21:59;;;;;;;6.27;3.73;;;23.20;69.10;;;;;;5075130;28;20441;-66
2022/06/21 08:24:32;;;;;;;5.97;3.13;;;23.50;68.80;;;;;;5074677;28;20533;-65
2022/06/21 08:27:08;;;;;;;7.63;4.83;;;23.80;69.20;;;;;;5074979;28;20444;-65
2022/06/21 08:29:44;;;;;;;7.63;5.10;;;24.00;66.90;;;;;;5074692;28;20898;-66
2022/06/21 08:32:18;;;;;;;11.30;4.40;;;24.20;66.60;;;;;;5074906;28;20469;-65
2022/06/21 08:34:49;;;;;;;6.20;4.07;;;24.10;63.70;;;;;;5074958;28;20486;-65
2022/06/21 08:37:24;;;;;;;8.27;5.00;;;24.00;65.30;;;;;;5074400;28;20439;-65
2022/06/21 08:39:56;;;;;;;7.20;3.57;;;23.80;64.10;;;;;;5074826;28;20442;-65
2022/06/21 08:42:54;;;;;;;8.53;4.70;;;23.80;65.80;;;;;;5074557;28;20444;-66
2022/06/21 08:45:46;;;;;;;5.43;3.90;;;24.00;67.60;;;;;;5075003;28;20984;-67
2022/06/21 08:48:45;;;;;;;9.07;5.17;;;24.20;65.70;;;;;;5074735;28;20462;-65
2022/06/21 08:51:46;;;;;;;15.30;6.50;;;24.40;65.30;;;;;;5074718;28;20434;-65
2022/06/21 08:54:25;;;;;;;6.40;4.73;;;24.60;66.40;;;;;;5074596;28;20528;-65
2022/06/21 08:56:57;;;;;;;7.50;3.70;;;25.00;63.90;;;;;;5074492;28;20483;-65
2022/06/21 08:59:33;;;;;;;6.70;3.27;;;25.20;63.00;;;;;;5074159;28;20478;-65
2022/06/21 09:02:09;;;;;;;5.80;3.70;;;25.30;63.60;;;;;;5074518;28;20447;-66
2022/06/21 09:04:46;;;;;;;6.60;3.93;;;25.40;62.10;;;;;;5074465;28;21010;-66
2022/06/21 09:07:45;;;;;;;5.50;4.00;;;25.40;62.20;;;;;;5074531;28;20522;-66
2022/06/21 09:10:32;;;;;;;5.67;3.57;;;25.60;60.20;;;;;;5074275;28;20795;-67
2022/06/21 09:13:12;;;;;;;10.43;4.63;;;25.60;60.30;;;;;;5073693;28;20466;-66
2022/06/21 09:15:48;;;;;;;6.90;4.10;;;25.60;60.40;;;;;;5074144;28;20569;-65
2022/06/21 09:18:28;;;;;;;7.37;4.67;;;25.50;59.70;;;;;;5074216;28;20439;-65
2022/06/21 09:21:04;;;;;;;9.03;4.47;;;25.40;59.10;;;;;;5074210;28;20462;-65
2022/06/21 09:24:02;;;;;;;6.77;4.60;;;25.50;61.10;;;;;;5074156;28;20439;-66
2022/06/21 09:26:34;;;;;;;7.30;4.37;;;25.60;60.30;;;;;;5073681;28;20440;-65
2022/06/21 09:29:13;;;;;;;7.80;5.03;;;25.80;61.00;;;;;;5073878;28;20467;-66
2022/06/21 09:31:49;;;;;;;7.63;5.43;;;25.90;61.70;;;;;;5074001;28;20517;-66
2022/06/21 09:34:27;;;;;;;5.80;5.20;;;26.20;60.70;;;;;;5073511;28;20446;-66
2022/06/21 09:37:02;;;;;;;7.37;5.50;;;26.50;60.10;;;;;;5073145;28;20440;-66
2022/06/21 09:39:37;;;;;;;8.80;5.67;;;26.70;60.30;;;;;;5073612;28;20453;-65
2022/06/21 09:42:14;;;;;;;10.30;6.00;;;26.90;59.20;;;;;;5073692;28;20436;-66
2022/06/21 09:44:48;;;;;;;10.30;6.33;;;27.10;59.40;;;;;;5073762;28;20462;-66
2022/06/21 09:47:23;;;;;;;7.53;6.50;;;27.10;58.40;;;;;;5073149;28;20447;-66
2022/06/21 09:49:59;;;;;;;10.70;6.13;;;27.30;58.50;;;;;;5073761;28;20428;-66
2022/06/21 09:52:35;;;;;;;9.43;5.20;;;27.30;56.90;;;;;;5073284;28;20442;-66
2022/06/21 09:55:16;;;;;;;7.10;6.40;;;27.30;57.60;;;;;;5073463;28;20487;-66
2022/06/21 09:57:51;;;;;;;6.73;5.47;;;27.20;56.70;;;;;;5073260;28;20986;-65
2022/06/21 10:00:27;;;;;;;8.97;6.23;;;27.40;57.00;;;;;;5073336;28;20439;-66
2022/06/21 10:03:08;;;;;;;8.07;6.77;;;27.50;56.80;;;;;;5073115;28;20527;-66
2022/06/21 10:05:40;;;;;;;9.90;6.60;;;27.70;57.40;;;;;;5073475;28;20436;-66
2022/06/21 10:08:20;;;;;;;9.43;7.27;;;27.90;56.40;;;;;;5073146;28;20447;-67
2022/06/21 10:11:01;;;;;;;8.93;6.73;;;28.00;55.50;;;;;;5073101;28;20436;-66
2022/06/21 10:14:08;;;;;;;8.40;6.30;;;28.00;55.60;;;;;;5073347;28;20895;-66
2022/06/21 10:16:51;;;;;;;7.93;6.30;;;27.90;54.70;;;;;;5055210;28;20562;-65
2022/06/21 10:19:31;;;;;;;9.03;7.50;;;27.60;54.80;;;;;;5072992;28;20424;-66
2022/06/21 10:22:14;;;;;;;8.37;6.73;;;27.50;55.50;;;;;;5073140;28;20534;-66
2022/06/21 10:25:11;;;;;;;12.13;6.57;;;27.40;55.30;;;;;;5073093;28;20528;-66
2022/06/21 10:28:06;;;;;;;8.27;6.30;;;27.40;55.70;;;;;;5072717;28;20448;-67
2022/06/21 10:30:54;;;;;;;10.40;7.50;;;27.60;57.20;;;;;;5072613;28;20475;-66
2022/06/21 10:33:41;;;;;;;10.03;7.00;;;27.90;57.20;;;;;;5073103;28;20527;-66
2022/06/21 10:36:42;;;;;;;7.63;5.70;;;28.20;57.10;;;;;;5072876;28;20486;-68
2022/06/21 10:39:21;;;;;;;10.73;5.70;;;28.40;58.30;;;;;;5073147;28;20464;-66
2022/06/21 10:45:05;;;;;;;11.67;7.10;;;29.00;53.70;;;;;;5072882;28;20420;-66
2022/06/21 10:47:44;;;;;;;8.50;6.63;;;29.00;53.50;;;;;;5075439;28;20796;-66
2022/06/21 10:50:25;;;;;;;8.70;6.70;;;29.10;52.50;;;;;;5077047;28;20531;-66
2022/06/21 10:53:07;;;;;;;10.17;5.77;;;29.00;53.10;;;;;;5076954;28;20442;-66
2022/06/21 10:57:09;;;;;;;9.50;6.43;;;29.00;53.90;;;;;;5076883;28;20576;-66
2022/06/21 10:58:58;;;;;;;8.67;5.93;;;29.00;54.80;;;;;;5076705;28;20435;-66
2022/06/21 11:01:32;;;;;;;10.43;7.67;;;29.10;54.60;;;;;;5076694;28;20446;-66
2022/06/21 11:04:28;;;;;;;10.67;7.63;;;29.00;53.20;;;;;;5076389;28;20440;-66
2022/06/21 11:07:03;;;;;;;7.80;6.83;;;28.90;52.20;;;;;;5075172;28;20448;-66
2022/06/21 11:09:36;;;;;;;9.90;6.80;;;28.90;56.00;;;;;;5076510;28;20914;-66
2022/06/21 11:15:13;;;;;;;9.40;7.13;;;28.70;54.40;;;;;;5076139;28;20431;-66
2022/06/21 11:17:53;;;;;;;9.60;6.77;;;28.80;55.70;;;;;;5075914;28;20520;-66
2022/06/21 11:20:28;;;;;;;7.77;6.00;;;28.80;55.10;;;;;;5076055;28;20442;-66
2022/06/21 11:23:04;;;;;;;7.53;5.73;;;28.90;55.60;;;;;;5076124;28;20798;-66
2022/06/21 11:25:43;;;;;;;10.07;6.70;;;28.90;53.90;;;;;;5075763;28;20473;-66
2022/06/21 11:28:20;;;;;;;9.23;6.70;;;29.00;55.30;;;;;;5075640;28;20810;-67
2022/06/21 11:30:54;;;;;;;12.13;7.53;;;29.20;54.20;;;;;;5075685;28;20438;-66
2022/06/21 11:33:33;;;;;;;12.63;6.87;;;29.30;53.00;;;;;;5075875;28;20436;-66
2022/06/21 11:36:06;;;;;;;9.17;6.20;;;29.40;52.70;;;;;;5076103;28;20825;-66
2022/06/21 11:39:00;;;;;;;7.87;5.97;;;29.60;53.30;;;;;;5076158;28;20468;-66
2022/06/21 11:42:05;;;;;;;9.23;7.10;;;29.70;53.10;;;;;;5075679;28;20474;-66
2022/06/21 11:44:57;;;;;;;8.40;7.10;;;29.60;52.40;;;;;;5075964;28;20443;-66
2022/06/21 11:47:39;;;;;;;10.27;6.17;;;29.50;51.30;;;;;;5075657;28;20464;-66
2022/06/21 11:50:17;;;;;;;6.50;4.57;;;29.30;53.30;;;;;;5079123;28;20999;-67
2022/06/21 11:53:13;;;;;;;6.83;5.43;;;29.30;53.90;;;;;;5082470;28;20535;-66
2022/06/21 11:55:46;;;;;;;8.60;5.60;;;29.30;54.40;;;;;;5081469;28;20490;-66
2022/06/21 11:58:26;;;;;;;7.60;6.07;;;29.30;55.50;;;;;;5081767;28;20522;-66
2022/06/21 12:00:56;;;;;;;9.60;5.70;;;29.30;53.60;;;;;;5084636;28;20440;-66
2022/06/21 12:03:32;;;;;;;9.70;6.20;;;29.20;54.30;;;;;;5080881;28;20483;-66
2022/06/21 12:06:06;;;;;;;5.90;5.30;;;29.20;54.60;;;;;;5083298;28;20572;-66
2022/06/21 12:08:38;;;;;;;9.50;5.13;;;29.20;53.80;;;;;;5085892;28;20523;-66
2022/06/21 12:11:15;;;;;;;9.93;5.30;;;29.10;54.10;;;;;;5082699;28;20543;-66
2022/06/21 12:13:54;;;;;;;7.73;5.50;;;29.00;54.40;;;;;;5081804;28;20447;-66
2022/06/21 12:16:40;;;;;;;7.97;5.33;;;28.90;55.80;;;;;;5084005;28;20537;-66
2022/06/21 12:19:11;;;;;;;13.83;6.30;;;29.00;56.10;;;;;;5086100;28;20521;-68
2022/06/21 12:21:47;;;;;;;9.20;5.20;;;29.10;55.50;;;;;;5080841;28;20523;-66
2022/06/21 12:24:17;;;;;;;7.60;5.57;;;29.10;53.50;;;;;;5081994;28;20448;-66
2022/06/21 12:26:45;;;;;;;8.23;5.83;;;29.00;55.20;;;;;;5081597;28;20444;-66
2022/06/21 12:29:16;;;;;;;6.13;4.70;;;29.00;55.40;;;;;;5085449;28;20473;-66
2022/06/21 12:31:49;;;;;;;6.80;5.80;;;29.00;54.90;;;;;;5082621;28;20436;-66
2022/06/21 12:34:25;;;;;;;6.10;5.23;;;29.00;53.80;;;;;;5084649;28;20909;-66
2022/06/21 12:36:58;;;;;;;13.93;6.30;;;29.00;52.70;;;;;;5084547;28;20505;-66
2022/06/21 12:39:30;;;;;;;7.63;5.10;;;28.90;53.40;;;;;;5083389;28;20442;-66
2022/06/21 12:42:09;;;;;;;7.60;5.00;;;28.80;53.00;;;;;;5083527;28;20843;-66
2022/06/21 12:44:48;;;;;;;8.03;5.07;;;28.80;53.30;;;;;;5085375;28;20467;-66
2022/06/21 12:47:27;;;;;;;10.17;5.70;;;28.80;54.00;;;;;;5079605;28;20438;-66
2022/06/21 12:50:35;;;;;;;10.40;5.60;;;28.70;54.80;;;;;;5083613;28;20447;-66
2022/06/21 12:53:49;;;;;;;6.20;5.57;;;28.80;54.50;;;;;;5073777;28;20453;-66
2022/06/21 12:56:30;;;;;;;6.07;5.47;;;28.80;53.90;;;;;;5038958;28;20489;-66
2022/06/21 12:59:27;;;;;;;6.53;5.27;;;28.70;53.60;;;;;;5079347;28;20530;-66
2022/06/21 13:02:01;;;;;;;6.10;5.10;;;28.70;54.20;;;;;;5081252;28;20869;-66
2022/06/21 13:04:48;;;;;;;7.60;4.80;;;28.80;56.00;;;;;;5083190;28;20443;-67
2022/06/21 13:07:40;;;;;;;7.50;5.37;;;28.80;53.90;;;;;;5080838;28;20543;-66
2022/06/21 13:10:28;;;;;;;8.13;5.33;;;28.80;53.60;;;;;;5078978;28;20444;-66
2022/06/21 13:13:09;;;;;;;10.50;5.27;;;28.80;53.70;;;;;;5079286;28;20471;-66
2022/06/21 13:15:52;;;;;;;6.50;4.50;;;28.80;54.80;;;;;;5082708;28;20443;-67
2022/06/21 13:18:37;;;;;;;9.50;5.17;;;28.90;54.50;;;;;;5079769;28;20439;-66
2022/06/21 13:21:15;;;;;;;6.67;4.83;;;29.10;53.60;;;;;;5078885;28;20462;-68
2022/06/21 13:23:53;;;;;;;6.50;5.30;;;29.30;54.20;;;;;;5080363;28;20513;-66
2022/06/21 13:26:34;;;;;;;8.93;5.57;;;29.50;51.30;;;;;;5076676;28;20444;-66
2022/06/21 13:29:14;;;;;;;11.70;5.20;;;29.50;51.50;;;;;;5080309;28;20484;-66
2022/06/21 13:31:46;;;;;;;5.93;4.50;;;29.60;50.80;;;;;;5077533;28;20448;-66
2022/06/21 13:34:30;;;;;;;6.70;5.90;;;29.60;51.00;;;;;;5079182;28;20440;-66
2022/06/21 13:37:09;;;;;;;6.83;5.10;;;29.60;50.90;;;;;;5079448;28;20505;-65
2022/06/21 13:39:41;;;;;;;7.33;4.90;;;29.60;50.80;;;;;;5081993;28;20447;-66
2022/06/21 13:45:04;;;;;;;10.30;5.93;;;29.70;50.90;;;;;;5079798;28;20443;-66
2022/06/21 13:47:34;;;;;;;8.53;5.20;;;29.70;51.10;;;;;;5082461;28;20444;-66